sensor_id;sensor_type;location;lat;lon;timestamp;P1;durP1;ratioP1;P2;durP2;ratioP2
56657;SDS011;42530;52.240;19.354;2022-07-06T00:01:17;16.15;;;14.75;;
56657;SDS011;42530;52.240;19.354;2022-07-06T00:03:44;14.77;;;13.02;;
56657;SDS011;42530;52.240;19.354;2022-07-06T00:06:09;14.20;;;13.00;;
56657;SDS011;42530;52.240;19.354;2022-07-06T00:08:35;15.68;;;14.20;;
56657;SDS011;42530;52.240;19.354;2022-07-06T00:11:01;21.23;;;14.02;;
56657;SDS011;42530;52.240;19.354;2022-07-06T00:13:26;15.45;;;13.75;;
56657;SDS011;42530;52.240;19.354;2022-07-06T00:15:52;15.63;;;12.00;;
56657;SDS011;42530;52.240;19.354;2022-07-06T00:18:18;17.30;;;14.40;;
56657;SDS011;42530;52.240;19.354;2022-07-06T00:20:43;12.63;;;11.32;;
56657;SDS011;42530;52.240;19.354;2022-07-06T00:23:09;17.02;;;12.48;;
56657;SDS011;42530;52.240;19.354;2022-07-06T00:25:35;14.40;;;12.65;;
56657;SDS011;42530;52.240;19.354;2022-07-06T00:28:00;11.95;;;10.85;;
56657;SDS011;42530;52.240;19.354;2022-07-06T00:30:26;17.25;;;10.52;;
56657;SDS011;42530;52.240;19.354;2022-07-06T00:32:51;13.18;;;10.38;;
56657;SDS011;42530;52.240;19.354;2022-07-06T00:35:17;12.50;;;11.38;;
56657;SDS011;42530;52.240;19.354;2022-07-06T00:37:42;11.98;;;10.95;;
56657;SDS011;42530;52.240;19.354;2022-07-06T00:40:08;13.30;;;12.07;;
56657;SDS011;42530;52.240;19.354;2022-07-06T00:42:43;14.27;;;12.40;;
56657;SDS011;42530;52.240;19.354;2022-07-06T00:45:10;12.48;;;11.40;;
56657;SDS011;42530;52.240;19.354;2022-07-06T00:47:37;15.65;;;12.63;;
56657;SDS011;42530;52.240;19.354;2022-07-06T00:50:04;12.85;;;11.07;;
56657;SDS011;42530;52.240;19.354;2022-07-06T00:52:42;17.95;;;11.98;;
56657;SDS011;42530;52.240;19.354;2022-07-06T00:55:09;12.27;;;9.93;;
56657;SDS011;42530;52.240;19.354;2022-07-06T00:57:36;11.35;;;10.35;;
56657;SDS011;42530;52.240;19.354;2022-07-06T01:00:06;11.23;;;10.23;;
56657;SDS011;42530;52.240;19.354;2022-07-06T01:02:35;10.48;;;9.63;;
56657;SDS011;42530;52.240;19.354;2022-07-06T01:05:03;9.52;;;8.68;;
56657;SDS011;42530;52.240;19.354;2022-07-06T01:07:29;12.02;;;11.02;;
56657;SDS011;42530;52.240;19.354;2022-07-06T01:09:55;11.45;;;9.70;;
56657;SDS011;42530;52.240;19.354;2022-07-06T01:12:21;9.90;;;8.95;;
56657;SDS011;42530;52.240;19.354;2022-07-06T01:14:48;10.52;;;8.70;;
56657;SDS011;42530;52.240;19.354;2022-07-06T01:17:14;9.68;;;8.82;;
56657;SDS011;42530;52.240;19.354;2022-07-06T01:19:41;9.88;;;7.97;;
56657;SDS011;42530;52.240;19.354;2022-07-06T01:22:06;17.00;;;8.93;;
56657;SDS011;42530;52.240;19.354;2022-07-06T01:24:34;9.55;;;7.65;;
56657;SDS011;42530;52.240;19.354;2022-07-06T01:27:00;9.80;;;8.73;;
56657;SDS011;42530;52.240;19.354;2022-07-06T01:29:26;9.73;;;8.88;;
56657;SDS011;42530;52.240;19.354;2022-07-06T01:31:52;10.55;;;7.53;;
56657;SDS011;42530;52.240;19.354;2022-07-06T01:34:17;8.68;;;7.95;;
56657;SDS011;42530;52.240;19.354;2022-07-06T01:36:44;8.80;;;8.02;;
56657;SDS011;42530;52.240;19.354;2022-07-06T01:39:10;12.70;;;8.13;;
56657;SDS011;42530;52.240;19.354;2022-07-06T01:41:35;9.02;;;7.93;;
56657;SDS011;42530;52.240;19.354;2022-07-06T01:44:02;13.32;;;8.27;;
56657;SDS011;42530;52.240;19.354;2022-07-06T01:46:28;8.73;;;7.97;;
56657;SDS011;42530;52.240;19.354;2022-07-06T01:48:54;8.52;;;7.43;;
56657;SDS011;42530;52.240;19.354;2022-07-06T01:51:19;10.57;;;7.38;;
56657;SDS011;42530;52.240;19.354;2022-07-06T01:53:45;8.52;;;7.00;;
56657;SDS011;42530;52.240;19.354;2022-07-06T01:56:11;7.72;;;6.85;;
56657;SDS011;42530;52.240;19.354;2022-07-06T01:58:37;7.93;;;6.80;;
56657;SDS011;42530;52.240;19.354;2022-07-06T02:01:10;7.75;;;7.13;;
56657;SDS011;42530;52.240;19.354;2022-07-06T02:03:37;9.68;;;8.20;;
56657;SDS011;42530;52.240;19.354;2022-07-06T02:06:03;6.63;;;6.03;;
56657;SDS011;42530;52.240;19.354;2022-07-06T02:08:29;8.32;;;7.22;;
56657;SDS011;42530;52.240;19.354;2022-07-06T02:10:54;9.20;;;7.18;;
56657;SDS011;42530;52.240;19.354;2022-07-06T02:13:20;10.20;;;8.40;;
56657;SDS011;42530;52.240;19.354;2022-07-06T02:15:45;7.65;;;7.05;;
56657;SDS011;42530;52.240;19.354;2022-07-06T02:18:11;7.97;;;7.18;;
56657;SDS011;42530;52.240;19.354;2022-07-06T02:20:36;7.88;;;7.18;;
56657;SDS011;42530;52.240;19.354;2022-07-06T02:23:02;6.95;;;6.45;;
56657;SDS011;42530;52.240;19.354;2022-07-06T02:25:28;9.80;;;8.82;;
56657;SDS011;42530;52.240;19.354;2022-07-06T02:27:54;8.75;;;7.95;;
56657;SDS011;42530;52.240;19.354;2022-07-06T02:30:19;9.20;;;8.27;;
56657;SDS011;42530;52.240;19.354;2022-07-06T02:32:45;9.52;;;8.60;;
56657;SDS011;42530;52.240;19.354;2022-07-06T02:35:11;9.18;;;8.27;;
56657;SDS011;42530;52.240;19.354;2022-07-06T02:37:36;6.82;;;6.32;;
56657;SDS011;42530;52.240;19.354;2022-07-06T02:40:02;8.85;;;8.05;;
56657;SDS011;42530;52.240;19.354;2022-07-06T02:42:28;9.77;;;7.30;;
56657;SDS011;42530;52.240;19.354;2022-07-06T02:44:53;9.25;;;8.32;;
56657;SDS011;42530;52.240;19.354;2022-07-06T02:47:19;9.73;;;8.73;;
56657;SDS011;42530;52.240;19.354;2022-07-06T02:49:45;8.05;;;7.47;;
56657;SDS011;42530;52.240;19.354;2022-07-06T02:52:10;9.05;;;8.23;;
56657;SDS011;42530;52.240;19.354;2022-07-06T02:54:36;11.13;;;7.65;;
56657;SDS011;42530;52.240;19.354;2022-07-06T02:57:01;8.82;;;7.93;;
56657;SDS011;42530;52.240;19.354;2022-07-06T02:59:27;8.45;;;7.75;;
56657;SDS011;42530;52.240;19.354;2022-07-06T03:01:52;8.13;;;7.32;;
56657;SDS011;42530;52.240;19.354;2022-07-06T03:04:18;9.25;;;7.38;;
56657;SDS011;42530;52.240;19.354;2022-07-06T03:06:43;8.40;;;7.03;;
56657;SDS011;42530;52.240;19.354;2022-07-06T03:09:08;8.40;;;6.82;;
56657;SDS011;42530;52.240;19.354;2022-07-06T03:11:34;7.85;;;7.18;;
56657;SDS011;42530;52.240;19.354;2022-07-06T03:14:03;8.18;;;7.32;;
56657;SDS011;42530;52.240;19.354;2022-07-06T03:16:30;8.30;;;7.60;;
56657;SDS011;42530;52.240;19.354;2022-07-06T03:18:55;8.48;;;7.78;;
56657;SDS011;42530;52.240;19.354;2022-07-06T03:21:22;8.68;;;7.97;;
56657;SDS011;42530;52.240;19.354;2022-07-06T03:23:48;9.20;;;8.40;;
56657;SDS011;42530;52.240;19.354;2022-07-06T03:26:13;8.70;;;7.55;;
56657;SDS011;42530;52.240;19.354;2022-07-06T03:28:39;7.30;;;6.75;;
56657;SDS011;42530;52.240;19.354;2022-07-06T03:31:04;8.55;;;7.90;;
56657;SDS011;42530;52.240;19.354;2022-07-06T03:33:30;15.15;;;8.38;;
56657;SDS011;42530;52.240;19.354;2022-07-06T03:35:55;8.65;;;7.70;;
56657;SDS011;42530;52.240;19.354;2022-07-06T03:38:21;8.82;;;7.93;;
56657;SDS011;42530;52.240;19.354;2022-07-06T03:40:46;8.73;;;8.05;;
56657;SDS011;42530;52.240;19.354;2022-07-06T03:43:12;8.20;;;7.60;;
56657;SDS011;42530;52.240;19.354;2022-07-06T03:45:38;7.95;;;7.20;;
56657;SDS011;42530;52.240;19.354;2022-07-06T03:48:03;8.70;;;7.75;;
56657;SDS011;42530;52.240;19.354;2022-07-06T03:50:29;8.68;;;7.97;;
56657;SDS011;42530;52.240;19.354;2022-07-06T03:52:55;8.32;;;7.57;;
56657;SDS011;42530;52.240;19.354;2022-07-06T03:55:21;14.98;;;8.70;;
56657;SDS011;42530;52.240;19.354;2022-07-06T03:57:46;13.52;;;8.50;;
56657;SDS011;42530;52.240;19.354;2022-07-06T04:00:12;7.68;;;7.07;;
56657;SDS011;42530;52.240;19.354;2022-07-06T04:02:38;10.40;;;8.05;;
56657;SDS011;42530;52.240;19.354;2022-07-06T04:05:03;8.73;;;7.30;;
56657;SDS011;42530;52.240;19.354;2022-07-06T04:07:29;8.55;;;6.68;;
56657;SDS011;42530;52.240;19.354;2022-07-06T04:09:55;7.95;;;7.30;;
56657;SDS011;42530;52.240;19.354;2022-07-06T04:12:21;7.72;;;6.60;;
56657;SDS011;42530;52.240;19.354;2022-07-06T04:14:46;7.75;;;7.13;;
56657;SDS011;42530;52.240;19.354;2022-07-06T04:17:12;15.77;;;8.98;;
56657;SDS011;42530;52.240;19.354;2022-07-06T04:19:56;13.23;;;7.38;;
56657;SDS011;42530;52.240;19.354;2022-07-06T04:22:21;7.38;;;5.95;;
56657;SDS011;42530;52.240;19.354;2022-07-06T04:24:47;7.25;;;6.50;;
56657;SDS011;42530;52.240;19.354;2022-07-06T04:27:12;6.55;;;5.95;;
56657;SDS011;42530;52.240;19.354;2022-07-06T04:29:38;6.10;;;5.15;;
56657;SDS011;42530;52.240;19.354;2022-07-06T04:32:04;6.22;;;5.07;;
56657;SDS011;42530;52.240;19.354;2022-07-06T04:34:29;5.38;;;4.43;;
56657;SDS011;42530;52.240;19.354;2022-07-06T04:36:55;8.10;;;6.03;;
56657;SDS011;42530;52.240;19.354;2022-07-06T04:39:21;5.88;;;5.28;;
56657;SDS011;42530;52.240;19.354;2022-07-06T04:41:46;5.47;;;5.05;;
56657;SDS011;42530;52.240;19.354;2022-07-06T04:44:11;6.60;;;5.72;;
56657;SDS011;42530;52.240;19.354;2022-07-06T04:46:37;6.50;;;5.03;;
56657;SDS011;42530;52.240;19.354;2022-07-06T04:49:02;4.90;;;4.60;;
56657;SDS011;42530;52.240;19.354;2022-07-06T04:51:28;6.38;;;4.35;;
56657;SDS011;42530;52.240;19.354;2022-07-06T04:53:53;6.45;;;5.55;;
56657;SDS011;42530;52.240;19.354;2022-07-06T04:56:18;6.95;;;6.45;;
56657;SDS011;42530;52.240;19.354;2022-07-06T04:58:44;4.90;;;4.65;;
56657;SDS011;42530;52.240;19.354;2022-07-06T05:01:09;6.80;;;6.18;;
56657;SDS011;42530;52.240;19.354;2022-07-06T05:03:35;7.65;;;5.28;;
56657;SDS011;42530;52.240;19.354;2022-07-06T05:06:04;8.23;;;4.53;;
56657;SDS011;42530;52.240;19.354;2022-07-06T05:08:30;5.60;;;5.10;;
56657;SDS011;42530;52.240;19.354;2022-07-06T05:10:56;6.00;;;4.57;;
56657;SDS011;42530;52.240;19.354;2022-07-06T05:13:21;5.10;;;4.25;;
56657;SDS011;42530;52.240;19.354;2022-07-06T05:15:47;3.65;;;3.45;;
56657;SDS011;42530;52.240;19.354;2022-07-06T05:18:12;5.38;;;3.58;;
56657;SDS011;42530;52.240;19.354;2022-07-06T05:20:38;4.82;;;4.43;;
56657;SDS011;42530;52.240;19.354;2022-07-06T05:23:04;7.85;;;4.32;;
56657;SDS011;42530;52.240;19.354;2022-07-06T05:25:29;4.32;;;3.65;;
56657;SDS011;42530;52.240;19.354;2022-07-06T05:27:55;4.53;;;4.13;;
56657;SDS011;42530;52.240;19.354;2022-07-06T05:30:21;4.53;;;2.90;;
56657;SDS011;42530;52.240;19.354;2022-07-06T05:32:46;5.45;;;3.75;;
56657;SDS011;42530;52.240;19.354;2022-07-06T05:35:12;7.15;;;4.25;;
56657;SDS011;42530;52.240;19.354;2022-07-06T05:37:37;3.10;;;2.90;;
56657;SDS011;42530;52.240;19.354;2022-07-06T05:40:03;3.78;;;3.45;;
56657;SDS011;42530;52.240;19.354;2022-07-06T05:42:29;3.05;;;2.85;;
56657;SDS011;42530;52.240;19.354;2022-07-06T05:44:55;4.85;;;3.28;;
56657;SDS011;42530;52.240;19.354;2022-07-06T05:47:21;6.25;;;3.38;;
56657;SDS011;42530;52.240;19.354;2022-07-06T05:50:06;5.07;;;3.57;;
56657;SDS011;42530;52.240;19.354;2022-07-06T05:52:40;4.68;;;2.58;;
56657;SDS011;42530;52.240;19.354;2022-07-06T05:55:08;2.90;;;2.70;;
56657;SDS011;42530;52.240;19.354;2022-07-06T05:57:35;5.68;;;3.60;;
56657;SDS011;42530;52.240;19.354;2022-07-06T06:00:01;3.28;;;2.83;;
56657;SDS011;42530;52.240;19.354;2022-07-06T06:02:26;2.65;;;2.45;;
56657;SDS011;42530;52.240;19.354;2022-07-06T06:05:01;4.13;;;2.95;;
56657;SDS011;42530;52.240;19.354;2022-07-06T06:07:27;3.05;;;2.65;;
56657;SDS011;42530;52.240;19.354;2022-07-06T06:09:52;3.60;;;3.25;;
56657;SDS011;42530;52.240;19.354;2022-07-06T06:12:18;2.53;;;2.35;;
56657;SDS011;42530;52.240;19.354;2022-07-06T06:14:43;3.45;;;2.53;;
56657;SDS011;42530;52.240;19.354;2022-07-06T06:17:09;4.00;;;2.08;;
56657;SDS011;42530;52.240;19.354;2022-07-06T06:19:35;2.83;;;2.05;;
56657;SDS011;42530;52.240;19.354;2022-07-06T06:22:01;2.85;;;2.38;;
56657;SDS011;42530;52.240;19.354;2022-07-06T06:24:27;2.17;;;2.08;;
56657;SDS011;42530;52.240;19.354;2022-07-06T06:26:53;2.67;;;2.47;;
56657;SDS011;42530;52.240;19.354;2022-07-06T06:29:19;4.57;;;2.15;;
56657;SDS011;42530;52.240;19.354;2022-07-06T06:31:44;2.22;;;1.80;;
56657;SDS011;42530;52.240;19.354;2022-07-06T06:34:09;2.70;;;2.08;;
56657;SDS011;42530;52.240;19.354;2022-07-06T06:36:35;3.40;;;1.80;;
56657;SDS011;42530;52.240;19.354;2022-07-06T06:39:01;7.05;;;3.35;;
56657;SDS011;42530;52.240;19.354;2022-07-06T06:41:27;4.82;;;2.25;;
56657;SDS011;42530;52.240;19.354;2022-07-06T06:43:53;3.10;;;2.83;;
56657;SDS011;42530;52.240;19.354;2022-07-06T06:46:18;2.08;;;1.98;;
56657;SDS011;42530;52.240;19.354;2022-07-06T06:48:44;4.05;;;3.75;;
56657;SDS011;42530;52.240;19.354;2022-07-06T06:51:09;2.53;;;2.33;;
56657;SDS011;42530;52.240;19.354;2022-07-06T06:53:35;2.78;;;2.58;;
56657;SDS011;42530;52.240;19.354;2022-07-06T06:56:00;2.45;;;1.75;;
56657;SDS011;42530;52.240;19.354;2022-07-06T06:58:26;2.60;;;2.40;;
56657;SDS011;42530;52.240;19.354;2022-07-06T07:00:51;3.50;;;2.28;;
56657;SDS011;42530;52.240;19.354;2022-07-06T07:03:17;1.60;;;1.45;;
56657;SDS011;42530;52.240;19.354;2022-07-06T07:05:43;2.33;;;2.15;;
56657;SDS011;42530;52.240;19.354;2022-07-06T07:08:08;2.47;;;2.10;;
56657;SDS011;42530;52.240;19.354;2022-07-06T07:10:34;2.13;;;1.92;;
56657;SDS011;42530;52.240;19.354;2022-07-06T07:13:00;2.30;;;2.20;;
56657;SDS011;42530;52.240;19.354;2022-07-06T07:15:25;5.13;;;2.28;;
56657;SDS011;42530;52.240;19.354;2022-07-06T07:17:51;3.47;;;2.00;;
56657;SDS011;42530;52.240;19.354;2022-07-06T07:20:16;2.15;;;2.00;;
56657;SDS011;42530;52.240;19.354;2022-07-06T07:22:42;1.98;;;1.88;;
56657;SDS011;42530;52.240;19.354;2022-07-06T07:25:07;1.70;;;1.60;;
56657;SDS011;42530;52.240;19.354;2022-07-06T07:27:33;1.80;;;1.70;;
56657;SDS011;42530;52.240;19.354;2022-07-06T07:29:59;2.25;;;1.60;;
56657;SDS011;42530;52.240;19.354;2022-07-06T07:32:24;1.70;;;1.60;;
56657;SDS011;42530;52.240;19.354;2022-07-06T07:34:50;1.85;;;1.67;;
56657;SDS011;42530;52.240;19.354;2022-07-06T07:37:15;1.63;;;1.33;;
56657;SDS011;42530;52.240;19.354;2022-07-06T07:39:41;3.25;;;1.58;;
56657;SDS011;42530;52.240;19.354;2022-07-06T07:42:07;0.90;;;0.90;;
56657;SDS011;42530;52.240;19.354;2022-07-06T07:44:33;1.10;;;1.10;;
56657;SDS011;42530;52.240;19.354;2022-07-06T07:46:58;1.63;;;1.50;;
56657;SDS011;42530;52.240;19.354;2022-07-06T07:49:24;3.15;;;1.20;;
56657;SDS011;42530;52.240;19.354;2022-07-06T07:51:49;4.10;;;2.25;;
56657;SDS011;42530;52.240;19.354;2022-07-06T07:54:15;4.15;;;2.47;;
56657;SDS011;42530;52.240;19.354;2022-07-06T07:56:40;1.70;;;1.60;;
56657;SDS011;42530;52.240;19.354;2022-07-06T07:59:06;4.93;;;1.80;;
56657;SDS011;42530;52.240;19.354;2022-07-06T08:01:32;2.15;;;2.00;;
56657;SDS011;42530;52.240;19.354;2022-07-06T08:03:58;3.38;;;1.77;;
56657;SDS011;42530;52.240;19.354;2022-07-06T08:06:24;4.15;;;2.28;;
56657;SDS011;42530;52.240;19.354;2022-07-06T08:08:50;2.13;;;1.77;;
56657;SDS011;42530;52.240;19.354;2022-07-06T08:11:15;8.35;;;1.90;;
56657;SDS011;42530;52.240;19.354;2022-07-06T08:13:41;3.42;;;1.92;;
56657;SDS011;42530;52.240;19.354;2022-07-06T08:16:07;1.75;;;1.48;;
56657;SDS011;42530;52.240;19.354;2022-07-06T08:18:35;3.40;;;1.40;;
56657;SDS011;42530;52.240;19.354;2022-07-06T08:21:01;2.92;;;1.50;;
56657;SDS011;42530;52.240;19.354;2022-07-06T08:23:26;2.33;;;1.42;;
56657;SDS011;42530;52.240;19.354;2022-07-06T08:25:52;1.30;;;1.20;;
56657;SDS011;42530;52.240;19.354;2022-07-06T08:28:17;2.25;;;1.42;;
56657;SDS011;42530;52.240;19.354;2022-07-06T08:30:43;5.18;;;1.38;;
56657;SDS011;42530;52.240;19.354;2022-07-06T08:33:09;2.30;;;1.23;;
56657;SDS011;42530;52.240;19.354;2022-07-06T08:35:34;3.33;;;1.40;;
56657;SDS011;42530;52.240;19.354;2022-07-06T08:37:59;1.88;;;1.65;;
56657;SDS011;42530;52.240;19.354;2022-07-06T08:40:25;3.28;;;2.13;;
56657;SDS011;42530;52.240;19.354;2022-07-06T08:42:56;1.90;;;1.60;;
56657;SDS011;42530;52.240;19.354;2022-07-06T08:45:24;1.90;;;1.20;;
56657;SDS011;42530;52.240;19.354;2022-07-06T08:47:50;1.38;;;1.27;;
56657;SDS011;42530;52.240;19.354;2022-07-06T08:50:19;4.18;;;1.88;;
56657;SDS011;42530;52.240;19.354;2022-07-06T08:52:47;2.55;;;2.35;;
56657;SDS011;42530;52.240;19.354;2022-07-06T08:55:14;2.63;;;1.20;;
56657;SDS011;42530;52.240;19.354;2022-07-06T08:57:41;2.42;;;1.40;;
56657;SDS011;42530;52.240;19.354;2022-07-06T09:00:07;2.08;;;1.00;;
56657;SDS011;42530;52.240;19.354;2022-07-06T09:02:33;3.03;;;1.77;;
56657;SDS011;42530;52.240;19.354;2022-07-06T09:05:02;3.83;;;3.47;;
56657;SDS011;42530;52.240;19.354;2022-07-06T09:07:28;1.95;;;1.83;;
56657;SDS011;42530;52.240;19.354;2022-07-06T09:09:54;3.13;;;2.17;;
56657;SDS011;42530;52.240;19.354;2022-07-06T09:12:25;4.28;;;2.30;;
56657;SDS011;42530;52.240;19.354;2022-07-06T09:14:54;3.97;;;1.83;;
56657;SDS011;42530;52.240;19.354;2022-07-06T09:17:23;11.48;;;2.78;;
56657;SDS011;42530;52.240;19.354;2022-07-06T09:19:50;3.85;;;1.98;;
56657;SDS011;42530;52.240;19.354;2022-07-06T09:22:29;1.98;;;1.33;;
56657;SDS011;42530;52.240;19.354;2022-07-06T09:25:03;1.73;;;1.00;;
56657;SDS011;42530;52.240;19.354;2022-07-06T09:27:37;1.40;;;1.30;;
56657;SDS011;42530;52.240;19.354;2022-07-06T09:30:05;4.40;;;1.50;;
56657;SDS011;42530;52.240;19.354;2022-07-06T09:32:37;1.83;;;0.85;;
56657;SDS011;42530;52.240;19.354;2022-07-06T09:35:05;5.93;;;5.22;;
56657;SDS011;42530;52.240;19.354;2022-07-06T09:37:30;1.30;;;1.30;;
56657;SDS011;42530;52.240;19.354;2022-07-06T09:39:56;1.35;;;1.35;;
56657;SDS011;42530;52.240;19.354;2022-07-06T09:42:25;1.90;;;1.63;;
56657;SDS011;42530;52.240;19.354;2022-07-06T09:44:51;4.93;;;1.55;;
56657;SDS011;42530;52.240;19.354;2022-07-06T09:47:17;16.48;;;5.40;;
56657;SDS011;42530;52.240;19.354;2022-07-06T09:49:44;16.75;;;4.82;;
56657;SDS011;42530;52.240;19.354;2022-07-06T09:52:11;11.60;;;3.50;;
56657;SDS011;42530;52.240;19.354;2022-07-06T09:54:38;7.28;;;2.58;;
56657;SDS011;42530;52.240;19.354;2022-07-06T09:57:05;4.15;;;2.13;;
56657;SDS011;42530;52.240;19.354;2022-07-06T09:59:31;13.63;;;4.53;;
56657;SDS011;42530;52.240;19.354;2022-07-06T10:02:00;1.48;;;1.33;;
56657;SDS011;42530;52.240;19.354;2022-07-06T10:04:29;1.70;;;1.60;;
56657;SDS011;42530;52.240;19.354;2022-07-06T10:06:55;3.60;;;2.00;;
56657;SDS011;42530;52.240;19.354;2022-07-06T10:09:21;6.90;;;3.72;;
56657;SDS011;42530;52.240;19.354;2022-07-06T10:11:52;2.53;;;2.33;;
56657;SDS011;42530;52.240;19.354;2022-07-06T10:14:20;1.70;;;1.58;;
56657;SDS011;42530;52.240;19.354;2022-07-06T10:16:47;2.30;;;1.60;;
56657;SDS011;42530;52.240;19.354;2022-07-06T10:19:14;2.35;;;1.80;;
56657;SDS011;42530;52.240;19.354;2022-07-06T10:21:41;1.38;;;1.38;;
56657;SDS011;42530;52.240;19.354;2022-07-06T10:24:07;1.83;;;1.67;;
56657;SDS011;42530;52.240;19.354;2022-07-06T10:26:34;1.52;;;1.42;;
56657;SDS011;42530;52.240;19.354;2022-07-06T10:29:04;1.73;;;1.40;;
56657;SDS011;42530;52.240;19.354;2022-07-06T10:31:31;1.77;;;1.52;;
56657;SDS011;42530;52.240;19.354;2022-07-06T10:33:59;1.52;;;1.20;;
56657;SDS011;42530;52.240;19.354;2022-07-06T10:36:26;1.73;;;1.52;;
56657;SDS011;42530;52.240;19.354;2022-07-06T10:38:53;1.55;;;1.45;;
56657;SDS011;42530;52.240;19.354;2022-07-06T10:41:40;1.92;;;1.67;;
56657;SDS011;42530;52.240;19.354;2022-07-06T10:44:14;2.13;;;1.85;;
56657;SDS011;42530;52.240;19.354;2022-07-06T10:46:58;1.90;;;1.80;;
56657;SDS011;42530;52.240;19.354;2022-07-06T10:49:24;2.08;;;1.27;;
56657;SDS011;42530;52.240;19.354;2022-07-06T10:51:52;1.48;;;1.38;;
56657;SDS011;42530;52.240;19.354;2022-07-06T10:54:18;2.55;;;1.05;;
56657;SDS011;42530;52.240;19.354;2022-07-06T10:56:46;8.20;;;3.00;;
56657;SDS011;42530;52.240;19.354;2022-07-06T10:59:19;1.77;;;0.98;;
56657;SDS011;42530;52.240;19.354;2022-07-06T11:04:43;1.88;;;1.35;;
56657;SDS011;42530;52.240;19.354;2022-07-06T11:07:11;3.50;;;1.15;;
56657;SDS011;42530;52.240;19.354;2022-07-06T11:09:37;1.50;;;1.40;;
56657;SDS011;42530;52.240;19.354;2022-07-06T11:12:16;3.38;;;1.50;;
56657;SDS011;42530;52.240;19.354;2022-07-06T11:14:44;1.83;;;1.65;;
56657;SDS011;42530;52.240;19.354;2022-07-06T11:17:10;5.28;;;1.30;;
56657;SDS011;42530;52.240;19.354;2022-07-06T11:19:36;3.60;;;1.00;;
56657;SDS011;42530;52.240;19.354;2022-07-06T11:24:33;2.42;;;1.48;;
56657;SDS011;42530;52.240;19.354;2022-07-06T11:27:00;5.18;;;1.42;;
56657;SDS011;42530;52.240;19.354;2022-07-06T11:29:27;1.83;;;1.63;;
56657;SDS011;42530;52.240;19.354;2022-07-06T11:31:54;2.50;;;1.55;;
56657;SDS011;42530;52.240;19.354;2022-07-06T11:34:23;1.95;;;1.70;;
56657;SDS011;42530;52.240;19.354;2022-07-06T11:36:57;2.08;;;1.17;;
56657;SDS011;42530;52.240;19.354;2022-07-06T11:41:58;1.95;;;1.77;;
56657;SDS011;42530;52.240;19.354;2022-07-06T11:44:25;1.38;;;1.27;;
56657;SDS011;42530;52.240;19.354;2022-07-06T11:46:52;2.30;;;1.52;;
56657;SDS011;42530;52.240;19.354;2022-07-06T11:49:18;2.50;;;2.30;;
56657;SDS011;42530;52.240;19.354;2022-07-06T11:51:44;2.90;;;2.08;;
56657;SDS011;42530;52.240;19.354;2022-07-06T11:54:11;3.83;;;2.85;;
56657;SDS011;42530;52.240;19.354;2022-07-06T11:56:45;7.00;;;2.75;;
56657;SDS011;42530;52.240;19.354;2022-07-06T11:59:12;2.70;;;2.50;;
56657;SDS011;42530;52.240;19.354;2022-07-06T12:01:38;5.53;;;3.25;;
56657;SDS011;42530;52.240;19.354;2022-07-06T12:04:09;3.33;;;3.03;;
56657;SDS011;42530;52.240;19.354;2022-07-06T12:06:35;4.93;;;3.08;;
56657;SDS011;42530;52.240;19.354;2022-07-06T12:09:00;3.65;;;3.08;;
56657;SDS011;42530;52.240;19.354;2022-07-06T12:11:32;3.65;;;3.35;;
56657;SDS011;42530;52.240;19.354;2022-07-06T12:14:00;3.95;;;3.20;;
56657;SDS011;42530;52.240;19.354;2022-07-06T12:16:31;4.70;;;3.33;;
56657;SDS011;42530;52.240;19.354;2022-07-06T12:19:02;3.55;;;3.22;;
56657;SDS011;42530;52.240;19.354;2022-07-06T12:21:29;4.22;;;3.30;;
56657;SDS011;42530;52.240;19.354;2022-07-06T12:23:55;3.72;;;3.20;;
56657;SDS011;42530;52.240;19.354;2022-07-06T12:26:25;6.47;;;3.95;;
56657;SDS011;42530;52.240;19.354;2022-07-06T12:29:06;3.28;;;3.03;;
56657;SDS011;42530;52.240;19.354;2022-07-06T12:31:48;4.30;;;3.90;;
56657;SDS011;42530;52.240;19.354;2022-07-06T12:34:19;4.25;;;3.95;;
56657;SDS011;42530;52.240;19.354;2022-07-06T12:36:53;4.78;;;4.18;;
56657;SDS011;42530;52.240;19.354;2022-07-06T12:39:21;5.80;;;4.07;;
56657;SDS011;42530;52.240;19.354;2022-07-06T12:41:53;3.88;;;3.30;;
56657;SDS011;42530;52.240;19.354;2022-07-06T12:44:28;4.00;;;3.70;;
56657;SDS011;42530;52.240;19.354;2022-07-06T12:47:06;3.75;;;3.45;;
56657;SDS011;42530;52.240;19.354;2022-07-06T12:49:34;4.57;;;4.15;;
56657;SDS011;42530;52.240;19.354;2022-07-06T12:54:48;3.75;;;3.45;;
56657;SDS011;42530;52.240;19.354;2022-07-06T13:02:09;4.25;;;4.03;;
56657;SDS011;42530;52.240;19.354;2022-07-06T13:04:42;3.60;;;3.40;;
56657;SDS011;42530;52.240;19.354;2022-07-06T13:07:07;3.83;;;3.40;;
56657;SDS011;42530;52.240;19.354;2022-07-06T13:09:44;4.30;;;4.00;;
56657;SDS011;42530;52.240;19.354;2022-07-06T13:12:10;3.83;;;3.50;;
56657;SDS011;42530;52.240;19.354;2022-07-06T13:14:36;3.45;;;3.15;;
56657;SDS011;42530;52.240;19.354;2022-07-06T13:17:02;3.28;;;3.08;;
56657;SDS011;42530;52.240;19.354;2022-07-06T13:19:28;4.05;;;3.20;;
56657;SDS011;42530;52.240;19.354;2022-07-06T13:21:54;5.32;;;3.42;;
56657;SDS011;42530;52.240;19.354;2022-07-06T13:24:19;4.30;;;3.38;;
56657;SDS011;42530;52.240;19.354;2022-07-06T13:26:45;2.78;;;2.58;;
56657;SDS011;42530;52.240;19.354;2022-07-06T13:29:11;5.35;;;2.30;;
56657;SDS011;42530;52.240;19.354;2022-07-06T13:31:38;2.40;;;2.28;;
56657;SDS011;42530;52.240;19.354;2022-07-06T13:34:05;5.38;;;3.08;;
56657;SDS011;42530;52.240;19.354;2022-07-06T13:36:31;2.75;;;2.55;;
56657;SDS011;42530;52.240;19.354;2022-07-06T13:38:57;4.18;;;3.28;;
56657;SDS011;42530;52.240;19.354;2022-07-06T13:41:23;2.88;;;2.67;;
56657;SDS011;42530;52.240;19.354;2022-07-06T13:43:49;3.38;;;2.53;;
56657;SDS011;42530;52.240;19.354;2022-07-06T13:46:14;3.92;;;2.60;;
56657;SDS011;42530;52.240;19.354;2022-07-06T13:48:41;2.92;;;2.60;;
56657;SDS011;42530;52.240;19.354;2022-07-06T13:51:08;2.50;;;2.30;;
56657;SDS011;42530;52.240;19.354;2022-07-06T13:53:33;3.63;;;2.33;;
56657;SDS011;42530;52.240;19.354;2022-07-06T13:55:59;1.80;;;1.70;;
56657;SDS011;42530;52.240;19.354;2022-07-06T13:58:25;2.15;;;2.05;;
56657;SDS011;42530;52.240;19.354;2022-07-06T14:00:51;2.63;;;2.25;;
56657;SDS011;42530;52.240;19.354;2022-07-06T14:03:16;2.30;;;2.10;;
56657;SDS011;42530;52.240;19.354;2022-07-06T14:05:42;2.97;;;2.60;;
56657;SDS011;42530;52.240;19.354;2022-07-06T14:08:08;2.10;;;1.83;;
56657;SDS011;42530;52.240;19.354;2022-07-06T14:10:33;2.83;;;2.40;;
56657;SDS011;42530;52.240;19.354;2022-07-06T14:12:59;2.63;;;2.42;;
56657;SDS011;42530;52.240;19.354;2022-07-06T14:15:25;2.45;;;2.25;;
56657;SDS011;42530;52.240;19.354;2022-07-06T14:17:50;2.10;;;2.00;;
56657;SDS011;42530;52.240;19.354;2022-07-06T14:20:16;3.88;;;2.08;;
56657;SDS011;42530;52.240;19.354;2022-07-06T14:22:43;3.38;;;2.50;;
56657;SDS011;42530;52.240;19.354;2022-07-06T14:25:09;3.25;;;2.33;;
56657;SDS011;42530;52.240;19.354;2022-07-06T14:27:34;2.22;;;2.10;;
56657;SDS011;42530;52.240;19.354;2022-07-06T14:30:00;4.07;;;2.53;;
56657;SDS011;42530;52.240;19.354;2022-07-06T14:32:26;2.60;;;2.40;;
56657;SDS011;42530;52.240;19.354;2022-07-06T14:34:52;2.55;;;2.35;;
56657;SDS011;42530;52.240;19.354;2022-07-06T14:37:17;2.60;;;2.50;;
56657;SDS011;42530;52.240;19.354;2022-07-06T14:39:44;3.75;;;2.30;;
56657;SDS011;42530;52.240;19.354;2022-07-06T14:42:11;2.58;;;2.35;;
56657;SDS011;42530;52.240;19.354;2022-07-06T14:44:37;3.30;;;3.08;;